Cochise — WDD8952 — position and weather

sailwx.info

Track history (hours):
 
Tides and Currents Weather Stations Pressure Air Temp Water Temp Dewpoint Dewpoint Depression Visibility Wind Speed Wind Dir Waves Ship Positions

Cochise

Owner: Sause Bros, Coos Bay, OR. More information available from US FCC via Universal Licensing System and Coast Guard Vessel Documentation Center.

Last reported at 2017-Jun-28 09:59 UTC. Time now 2017-Jun-28 10:25 UTC.
Position N 45°34' W 122°44'.

Length 32 m; draft 4.6 m.

Type: Towing. MMSI: 367304990.

Date/timePositionNaut miles runAvg speedWind from/ knotsBaromVisibWave heightAir tempDewpointWater temp
2017-Jun-28 09:59N 45°34' W 122°44'0 0.0
2017-Jun-28 09:29N 45°34' W 122°44'0 0.1
2017-Jun-28 08:59N 45°34' W 122°44'0 0.1
2017-Jun-28 08:29N 45°34' W 122°44'0 0.0
2017-Jun-28 08:00N 45°34' W 122°44'0 0.4
2017-Jun-28 07:29N 45°34' W 122°44'2 4.8
2017-Jun-28 07:00N 45°36' W 122°46'4 7.9
2017-Jun-28 06:30N 45°40' W 122°46'4 7.9
2017-Jun-28 06:00N 45°44' W 122°46'4 7.9
2017-Jun-28 05:31N 45°47' W 122°47'4 7.7
2017-Jun-28 05:00N 45°51' W 122°47'4 8.0
2017-Jun-28 04:30N 45°55' W 122°48'4 7.9
2017-Jun-28 04:00N 45°59' W 122°50'4 8.4
2017-Jun-28 03:30N 46°03' W 122°53'4 7.9
2017-Jun-28 03:00N 46°06' W 122°56'4 8.7
2017-Jun-28 02:31N 46°08' W 123°01'5 9.0
2017-Jun-28 02:00N 46°11' W 123°07'4 8.7
2017-Jun-28 01:30N 46°10' W 123°13'5 9.2
2017-Jun-28 01:00N 46°09' W 123°19'4 9.0
2017-Jun-28 00:31N 46°10' W 123°25'5 9.3
2017-Jun-28 00:00N 46°15' W 123°26'4 8.6
2017-Jun-27 23:30N 46°16' W 123°33'510.7
2017-Jun-27 23:00N 46°15' W 123°40'611.1
2017-Jun-27 22:31N 46°13' W 123°47'611.2
2017-Jun-27 22:01N 46°12' W 123°55'5 9.7
2017-Jun-27 21:30N 46°15' W 124°00'4 8.2
2017-Jun-27 21:01N 46°14' W 124°06'4 7.9
2017-Jun-27 20:30N 46°12' W 124°11'4 8.7
2017-Jun-27 20:00N 46°09' W 124°15'4 8.3
2017-Jun-27 19:30N 46°05' W 124°18'4 8.1
2017-Jun-27 19:00N 46°02' W 124°21'4 7.9
2017-Jun-27 18:30N 45°58' W 124°22'4 8.0
2017-Jun-27 18:00N 45°54' W 124°23'4 8.3
2017-Jun-27 17:31N 45°50' W 124°24'4 8.4
2017-Jun-27 17:01N 45°46' W 124°25'4 8.4
2017-Jun-27 16:30N 45°41' W 124°26'4 8.2
2017-Jun-27 16:01N 45°38' W 124°27'4 8.2
2017-Jun-27 15:31N 45°33' W 124°28'4 8.2
2017-Jun-27 15:00N 45°29' W 124°29'8 8.5
2017-Jun-27 14:01N 45°21' W 124°30'4 8.6
2017-Jun-27 13:30N 45°17' W 124°31'4 8.6
2017-Jun-27 13:01N 45°13' W 124°32'4 8.8
2017-Jun-27 12:30N 45°08' W 124°34'4 8.8
2017-Jun-27 12:01N 45°04' W 124°35'5 8.9
2017-Jun-27 11:29N 44°59' W 124°36'4 8.6
2017-Jun-27 11:00N 44°55' W 124°38'4 8.6
2017-Jun-27 10:30N 44°51' W 124°39'4 8.4
2017-Jun-27 10:00N 44°47' W 124°39'4 8.3
2017-Jun-27 09:30N 44°43' W 124°39'4 8.0
2017-Jun-27 09:00N 44°39' W 124°40'5 8.1
2017-Jun-27 08:23N 44°34' W 124°42'3 8.1
2017-Jun-27 07:59N 44°31' W 124°43'4 8.3
2017-Jun-27 07:30N 44°27' W 124°45'6 8.4
2017-Jun-27 06:46N 44°21' W 124°43'4 8.5
2017-Jun-27 06:19N 44°18' W 124°42'3 8.3
2017-Jun-27 06:00N 44°15' W 124°42'5 8.4
2017-Jun-27 05:28N 44°10' W 124°42'4 8.2
2017-Jun-27 05:00N 44°07' W 124°42'4 8.1
2017-Jun-27 04:28N 44°02' W 124°43'6 8.4
2017-Jun-27 03:45N 43°56' W 124°43'4 8.3
2017-Jun-27 03:20N 43°53' W 124°44'333 8.3
2017-Jun-25 11:19N 38°24' W 123°39'4 9.5
2017-Jun-25 10:55N 38°21' W 123°36'4 9.6
2017-Jun-25 10:30N 38°19' W 123°32'5 9.2
2017-Jun-25 09:57N 38°15' W 123°28'4 9.0
2017-Jun-25 09:30N 38°12' W 123°24'5 9.3
2017-Jun-25 09:00N 38°09' W 123°20'7 9.3
2017-Jun-25 08:18N 38°04' W 123°14'3 9.1
2017-Jun-25 07:58N 38°02' W 123°12'6 9.0
2017-Jun-25 07:16N 37°57' W 123°06'3 9.3
2017-Jun-25 06:58N 37°56' W 123°03'4 9.2
2017-Jun-25 06:30N 37°54' W 122°58'6 9.3
2017-Jun-25 05:51N 37°51' W 122°52'4 9.1
2017-Jun-25 05:23N 37°49' W 122°47'4 9.0
2017-Jun-25 04:59N 37°47' W 122°43'4 8.6
2017-Jun-25 04:30N 37°46' W 122°38'4 8.1
2017-Jun-25 04:00N 37°48' W 122°33'4 7.5
2017-Jun-25 03:30N 37°49' W 122°29'3 6.8
2017-Jun-25 03:01N 37°51' W 122°25'4 7.4
2017-Jun-25 02:30N 37°54' W 122°26'1 2.4
2017-Jun-25 02:00N 37°55' W 122°25'0 0.4
2017-Jun-25 01:30N 37°55' W 122°25'0 0.2
2017-Jun-25 00:58N 37°55' W 122°25'0 0.0
2017-Jun-25 00:28N 37°55' W 122°25'0 0.0
2017-Jun-24 23:58N 37°55' W 122°25'0 0.0
2017-Jun-24 23:28N 37°55' W 122°25'0 0.0
2017-Jun-24 22:58N 37°55' W 122°25'0 0.0
2017-Jun-24 22:28N 37°55' W 122°25'0 0.0
2017-Jun-24 21:58N 37°55' W 122°25'0 0.0
2017-Jun-24 21:28N 37°55' W 122°25'0 0.0
2017-Jun-24 20:58N 37°55' W 122°25'0 0.0
2017-Jun-24 20:28N 37°55' W 122°25'0 0.0
2017-Jun-24 19:58N 37°55' W 122°25'0 0.0
2017-Jun-24 19:28N 37°55' W 122°25'0 0.0
2017-Jun-24 18:58N 37°55' W 122°25'0 0.0
2017-Jun-24 18:28N 37°55' W 122°25'0 0.0
2017-Jun-24 17:52N 37°55' W 122°25'0 0.0
2017-Jun-24 17:28N 37°55' W 122°25'0 0.0
2017-Jun-24 16:58N 37°55' W 122°25'0 0.0
2017-Jun-24 16:28N 37°55' W 122°25'0 0.0
2017-Jun-24 15:58N 37°55' W 122°25'0 0.0
2017-Jun-24 15:28N 37°55' W 122°25'0 0.0
2017-Jun-24 14:58N 37°55' W 122°25'0 0.0
2017-Jun-24 13:58N 37°55' W 122°25'0 0.0
2017-Jun-24 13:28N 37°55' W 122°25'0 0.0
2017-Jun-24 12:58N 37°55' W 122°25'0 0.0
2017-Jun-24 12:28N 37°55' W 122°25'0 0.0
2017-Jun-24 11:58N 37°55' W 122°25'0 0.0
2017-Jun-24 11:28N 37°55' W 122°25'0 0.0
2017-Jun-24 10:58N 37°55' W 122°25'0 0.0
2017-Jun-24 10:28N 37°55' W 122°25'0 0.0
2017-Jun-24 09:58N 37°55' W 122°25'0 0.0
2017-Jun-24 09:28N 37°55' W 122°25'0 0.0
2017-Jun-24 08:58N 37°55' W 122°25'0 0.0
2017-Jun-24 08:19N 37°55' W 122°25'0 0.0
2017-Jun-24 07:58N 37°55' W 122°25'0 0.0
2017-Jun-24 07:28N 37°55' W 122°25'0 0.0
2017-Jun-24 06:46N 37°55' W 122°25'0 0.0
2017-Jun-24 06:28N 37°55' W 122°25'0 0.0
2017-Jun-24 05:55N 37°55' W 122°25'0 0.0
2017-Jun-24 05:28N 37°55' W 122°25'0 0.0
2017-Jun-24 04:58N 37°55' W 122°25'0 0.0
2017-Jun-24 04:28N 37°55' W 122°25'0 0.0
2017-Jun-24 03:58N 37°55' W 122°25'0 0.0
2017-Jun-24 03:28N 37°55' W 122°25'0 0.0
2017-Jun-24 02:58N 37°55' W 122°25'0 0.0
2017-Jun-24 02:25N 37°55' W 122°25'0 0.0
2017-Jun-24 01:58N 37°55' W 122°25'0 0.0
2017-Jun-24 01:28N 37°55' W 122°25'0 0.0
2017-Jun-24 00:58N 37°55' W 122°25'0 0.0
2017-Jun-24 00:28N 37°55' W 122°25'0 0.0
2017-Jun-23 23:55N 37°55' W 122°25'0 0.0
2017-Jun-23 23:28N 37°55' W 122°25'0 0.0
2017-Jun-23 22:55N 37°55' W 122°25'0 0.0
2017-Jun-23 22:28N 37°55' W 122°25'0 0.0
2017-Jun-23 21:58N 37°55' W 122°25'0 0.0
2017-Jun-23 21:28N 37°55' W 122°25'0 0.0
2017-Jun-23 21:00N 37°55' W 122°25'0 0.0
2017-Jun-23 20:28N 37°55' W 122°25'0 0.0
2017-Jun-23 19:55N 37°55' W 122°25'0 0.0
2017-Jun-23 19:25N 37°55' W 122°25'0 0.3
2017-Jun-23 19:01N 37°55' W 122°25'0 0.3
2017-Jun-23 18:31N 37°55' W 122°25'2 4.3
2017-Jun-23 18:01N 37°54' W 122°22'1 1.5
2017-Jun-23 17:31N 37°55' W 122°22'0 0.0
2017-Jun-23 16:59N 37°55' W 122°22'0 0.0
2017-Jun-23 16:29N 37°55' W 122°22'0 0.0
2017-Jun-23 15:59N 37°55' W 122°22'0 0.0
2017-Jun-23 15:26N 37°55' W 122°22'0 0.0
2017-Jun-23 14:56N 37°55' W 122°22'0 0.0
2017-Jun-23 13:59N 37°55' W 122°22'0 0.0
2017-Jun-23 13:26N 37°55' W 122°22'0 0.0
2017-Jun-23 12:59N 37°55' W 122°22'0 0.0
2017-Jun-23 12:26N 37°55' W 122°22'0 0.0
2017-Jun-23 11:59N 37°55' W 122°22'0 0.0
2017-Jun-23 11:30N 37°55' W 122°22'0 0.0
2017-Jun-23 10:59N 37°55' W 122°22'0 0.0
2017-Jun-23 10:29N 37°55' W 122°22'0 0.0
2017-Jun-23 10:00N 37°55' W 122°22'0 0.0
2017-Jun-23 09:29N 37°55' W 122°22'0 0.0
2017-Jun-23 08:59N 37°55' W 122°22'0 0.0
2017-Jun-23 08:29N 37°55' W 122°22'0 0.0
2017-Jun-23 07:56N 37°55' W 122°22'0 0.0
2017-Jun-23 07:29N 37°55' W 122°22'0 0.0
2017-Jun-23 06:59N 37°55' W 122°22'0 0.0
2017-Jun-23 06:29N 37°55' W 122°22'0 0.0
2017-Jun-23 05:59N 37°55' W 122°22'0 0.0
2017-Jun-23 05:26N 37°55' W 122°22'0 0.0
2017-Jun-23 04:59N 37°55' W 122°22'0 0.0
2017-Jun-23 04:29N 37°55' W 122°22'0 0.0
2017-Jun-23 03:59N 37°55' W 122°22'0 0.0
2017-Jun-23 03:29N 37°55' W 122°22'0 0.0
2017-Jun-23 02:56N 37°55' W 122°22'0 0.0
2017-Jun-23 02:29N 37°55' W 122°22'0 0.0
2017-Jun-23 01:59N 37°55' W 122°22'0 0.0
2017-Jun-23 01:26N 37°55' W 122°22'0 0.0
2017-Jun-23 00:56N 37°55' W 122°22'0 0.0
2017-Jun-23 00:29N 37°55' W 122°22'0 0.0
2017-Jun-22 23:53N 37°55' W 122°22'0 0.0
2017-Jun-22 23:20N 37°55' W 122°22'0 0.0
2017-Jun-22 22:56N 37°55' W 122°22'0 0.0
2017-Jun-22 22:23N 37°55' W 122°22'0 0.0
2017-Jun-22 21:56N 37°55' W 122°22'0 0.0
2017-Jun-22 21:26N 37°55' W 122°22'0 0.0
2017-Jun-22 20:53N 37°55' W 122°22'0 0.0
2017-Jun-22 20:26N 37°55' W 122°22'0 0.0
2017-Jun-22 19:56N 37°55' W 122°22'0 0.0
2017-Jun-22 19:17N 37°55' W 122°22'0 0.0
2017-Jun-22 18:59N 37°55' W 122°22'0 0.0
2017-Jun-22 18:23N 37°55' W 122°22'0 0.0
2017-Jun-22 17:56N 37°55' W 122°22'0 0.0
2017-Jun-22 16:44N 37°55' W 122°22'0 0.0
2017-Jun-22 16:29N 37°55' W 122°22'0 0.0
2017-Jun-22 15:59N 37°55' W 122°22'0 0.0
2017-Jun-22 15:23N 37°55' W 122°22'0 0.0
2017-Jun-22 14:59N 37°55' W 122°22'0 0.0
2017-Jun-22 14:29N 37°55' W 122°22'0 0.0
2017-Jun-22 13:26N 37°55' W 122°22'0 0.0
2017-Jun-22 12:59N 37°55' W 122°22'0 0.0
2017-Jun-22 12:26N 37°55' W 122°22'0 0.0
2017-Jun-22 11:59N 37°55' W 122°22'0 0.0
2017-Jun-22 11:23N 37°55' W 122°22'0 0.0
2017-Jun-22 10:59N 37°55' W 122°22'0 0.0
2017-Jun-22 10:29N 37°55' W 122°22'0 0.0
2017-Jun-22 09:59N 37°55' W 122°22'0 0.0
2017-Jun-22 09:26N 37°55' W 122°22'0 0.0
2017-Jun-22 08:59N 37°55' W 122°22'0 0.0
2017-Jun-22 08:29N 37°55' W 122°22'0 0.0
2017-Jun-22 06:47N 37°55' W 122°22'0 0.0
2017-Jun-22 06:17N 37°55' W 122°22'0 0.0
2017-Jun-22 05:59N 37°55' W 122°22'0 0.0
2017-Jun-22 05:29N 37°55' W 122°22'0 0.0
2017-Jun-22 04:53N 37°55' W 122°22'0 0.0
2017-Jun-22 04:26N 37°55' W 122°22'0 0.0
2017-Jun-22 03:53N 37°55' W 122°22'0 0.0
2017-Jun-22 03:29N 37°55' W 122°22'0 0.0
2017-Jun-22 02:56N 37°55' W 122°22'0 0.0
2017-Jun-22 02:29N 37°55' W 122°22'0 0.0
2017-Jun-22 01:59N 37°55' W 122°22'0 0.0
2017-Jun-22 01:29N 37°55' W 122°22'0 0.0
2017-Jun-22 00:56N 37°55' W 122°22'0 0.0
2017-Jun-22 00:26N 37°55' W 122°22'0 0.0
2017-Jun-21 23:59N 37°55' W 122°22'0 0.0
2017-Jun-21 23:17N 37°55' W 122°22'0 0.0
2017-Jun-21 22:56N 37°55' W 122°22'0 0.0
2017-Jun-21 22:29N 37°55' W 122°22'0 0.0
2017-Jun-21 21:56N 37°55' W 122°22'0 0.0
2017-Jun-21 21:29N 37°55' W 122°22'0 0.0
2017-Jun-21 20:56N 37°55' W 122°22'0 0.0
2017-Jun-21 20:29N 37°55' W 122°22'0 0.0
2017-Jun-21 19:56N 37°55' W 122°22'0 0.0
2017-Jun-21 19:29N 37°55' W 122°22'0 0.0
2017-Jun-21 18:59N 37°55' W 122°22'0 0.0
2017-Jun-21 18:29N 37°55' W 122°22'0 0.0
2017-Jun-21 17:59N 37°55' W 122°22'0 0.0
2017-Jun-21 17:26N 37°55' W 122°22'0 0.0
2017-Jun-21 16:23N 37°55' W 122°22'0 0.0
2017-Jun-21 15:47N 37°55' W 122°22'0 0.0
2017-Jun-21 15:29N 37°55' W 122°22'0 0.0
2017-Jun-21 14:47N 37°55' W 122°22'0 0.0
2017-Jun-21 13:59N 37°55' W 122°22'0 0.0
2017-Jun-21 13:29N 37°55' W 122°22'0 0.0
2017-Jun-21 12:59N 37°55' W 122°22'0 0.0
2017-Jun-21 12:29N 37°55' W 122°22'0 0.0
2017-Jun-21 11:59N 37°55' W 122°22'0 0.0
2017-Jun-21 11:26N 37°55' W 122°22'0 0.0
2017-Jun-21 10:59N 37°55' W 122°22'0 0.0
2017-Jun-21 10:23N 37°55' W 122°22'0 0.0
2017-Jun-21 09:59N 37°55' W 122°22'0 0.0
2017-Jun-21 09:26N 37°55' W 122°22'0 0.0
2017-Jun-21 08:56N 37°55' W 122°22'0 0.0
2017-Jun-21 08:23N 37°55' W 122°22'0 0.0
2017-Jun-21 07:59N 37°55' W 122°22'0 0.0
2017-Jun-21 07:05N 37°55' W 122°22'0 0.0
2017-Jun-21 06:47N 37°55' W 122°22'0 0.0
2017-Jun-21 06:23N 37°55' W 122°22'0 0.0
2017-Jun-21 05:59N 37°55' W 122°22'0 0.0
2017-Jun-21 05:29N 37°55' W 122°22'0 0.0
2017-Jun-21 04:59N 37°55' W 122°22'0 0.0
2017-Jun-21 04:17N 37°55' W 122°22'0 0.0
2017-Jun-21 03:05N 37°55' W 122°22'0 0.0
2017-Jun-21 02:56N 37°55' W 122°22'0 0.0
2017-Jun-21 02:29N 37°55' W 122°22'0 0.0
2017-Jun-21 01:38N 37°55' W 122°22'0 0.0
2017-Jun-21 01:29N 37°55' W 122°22'0 0.0
2017-Jun-21 00:59N 37°55' W 122°22'0 0.0
2017-Jun-21 00:29N 37°55' W 122°22'0 0.0
2017-Jun-20 23:56N 37°55' W 122°22'0 0.0
2017-Jun-20 23:29N 37°55' W 122°22'0 0.0
2017-Jun-20 22:59N 37°55' W 122°22'0 0.0
2017-Jun-20 22:29N 37°55' W 122°22'0 0.0
2017-Jun-20 21:59N 37°55' W 122°22'0 0.0
2017-Jun-20 21:26N 37°55' W 122°22'0 0.0
2017-Jun-20 20:59N 37°55' W 122°22'0 0.0
2017-Jun-20 20:29N 37°55' W 122°22'0 0.0
2017-Jun-20 19:59N 37°55' W 122°22'0 0.0
2017-Jun-20 19:27N 37°55' W 122°22'1 1.6
2017-Jun-20 19:01N 37°54' W 122°22'3 5.6
2017-Jun-20 18:30N 37°55' W 122°25'1 1.7
2017-Jun-20 18:00N 37°55' W 122°26'0 0.0
2017-Jun-20 17:28N 37°55' W 122°26'0 0.0
2017-Jun-20 16:58N 37°55' W 122°26'0 0.0
2017-Jun-20 16:25N 37°55' W 122°26'0 0.0
2017-Jun-20 15:49N 37°55' W 122°26'0 0.0
2017-Jun-20 15:28N 37°55' W 122°26'0 0.1
2017-Jun-20 14:43N 37°55' W 122°26'0 0.1
2017-Jun-20 14:22N 37°55' W 122°26'0 0.1
2017-Jun-20 13:28N 37°55' W 122°26'0 0.0
2017-Jun-20 12:58N 37°55' W 122°26'0 0.0
2017-Jun-20 12:28N 37°55' W 122°26'0 0.0
2017-Jun-20 11:55N 37°55' W 122°26'0 0.0
2017-Jun-20 11:28N 37°55' W 122°26'0 0.0
2017-Jun-20 10:58N 37°55' W 122°26'0 0.0
2017-Jun-20 10:28N 37°55' W 122°26'0 0.0
2017-Jun-20 09:58N 37°55' W 122°26'0 0.0
2017-Jun-20 09:28N 37°55' W 122°26'0 0.0
2017-Jun-20 08:52N 37°55' W 122°26'0 0.0
2017-Jun-20 08:28N 37°55' W 122°26'0 0.1
2017-Jun-20 07:58N 37°55' W 122°26'0 0.1
2017-Jun-20 07:28N 37°55' W 122°26'0 0.1
2017-Jun-20 06:58N 37°55' W 122°26'0 0.1
2017-Jun-20 06:28N 37°55' W 122°26'0 0.0
2017-Jun-20 05:55N 37°55' W 122°26'0 0.0
2017-Jun-20 05:31N 37°55' W 122°26'3 5.5
2017-Jun-20 05:01N 37°58' W 122°26'4 8.2
2017-Jun-20 04:30N 38°01' W 122°23'4 7.7
2017-Jun-20 04:00N 38°03' W 122°18'4 7.5
2017-Jun-20 03:30N 38°04' W 122°14'5 5.6
2017-Jun-20 02:40N 38°02' W 122°08'0 0.0
2017-Jun-18 17:05N 38°02' W 122°08'0 0.1
2017-Jun-18 17:00N 38°02' W 122°08'2 3.2
2017-Jun-18 16:30N 38°03' W 122°06'0 0.0
2017-Jun-18 12:06N 38°03' W 122°06'0 0.1
2017-Jun-18 12:00N 38°03' W 122°06'  
Track history (hours):
 
Tides and Currents Weather Stations Pressure Air Temp Water Temp Dewpoint Dewpoint Depression Visibility Wind Speed Wind Dir Waves Ship Positions

Cochise

Owner: Sause Bros, Coos Bay, OR. More information available from US FCC via Universal Licensing System and Coast Guard Vessel Documentation Center.

Last reported at 2017-Jun-28 09:59 UTC. Time now 2017-Jun-28 10:25 UTC.
Position N 45°34' W 122°44'.

Length 32 m; draft 4.6 m.

Type: Towing. MMSI: 367304990.

Date/timePositionNaut miles runAvg speedWind from/ knotsBaromVisibWave heightAir tempDewpointWater temp
2017-Jun-28 09:59N 45°34' W 122°44'0 0.0
2017-Jun-28 09:29N 45°34' W 122°44'0 0.1
2017-Jun-28 08:59N 45°34' W 122°44'0 0.1
2017-Jun-28 08:29N 45°34' W 122°44'0 0.0
2017-Jun-28 08:00N 45°34' W 122°44'0 0.4
2017-Jun-28 07:29N 45°34' W 122°44'2 4.8
2017-Jun-28 07:00N 45°36' W 122°46'4 7.9
2017-Jun-28 06:30N 45°40' W 122°46'4 7.9
2017-Jun-28 06:00N 45°44' W 122°46'4 7.9
2017-Jun-28 05:31N 45°47' W 122°47'4 7.7
2017-Jun-28 05:00N 45°51' W 122°47'4 8.0
2017-Jun-28 04:30N 45°55' W 122°48'4 7.9
2017-Jun-28 04:00N 45°59' W 122°50'4 8.4
2017-Jun-28 03:30N 46°03' W 122°53'4 7.9
2017-Jun-28 03:00N 46°06' W 122°56'4 8.7
2017-Jun-28 02:31N 46°08' W 123°01'5 9.0
2017-Jun-28 02:00N 46°11' W 123°07'4 8.7
2017-Jun-28 01:30N 46°10' W 123°13'5 9.2
2017-Jun-28 01:00N 46°09' W 123°19'4 9.0
2017-Jun-28 00:31N 46°10' W 123°25'5 9.3
2017-Jun-28 00:00N 46°15' W 123°26'4 8.6
2017-Jun-27 23:30N 46°16' W 123°33'510.7
2017-Jun-27 23:00N 46°15' W 123°40'611.1
2017-Jun-27 22:31N 46°13' W 123°47'611.2
2017-Jun-27 22:01N 46°12' W 123°55'5 9.7
2017-Jun-27 21:30N 46°15' W 124°00'4 8.2
2017-Jun-27 21:01N 46°14' W 124°06'4 7.9
2017-Jun-27 20:30N 46°12' W 124°11'4 8.7
2017-Jun-27 20:00N 46°09' W 124°15'4 8.3
2017-Jun-27 19:30N 46°05' W 124°18'4 8.1
2017-Jun-27 19:00N 46°02' W 124°21'4 7.9
2017-Jun-27 18:30N 45°58' W 124°22'4 8.0
2017-Jun-27 18:00N 45°54' W 124°23'4 8.3
2017-Jun-27 17:31N 45°50' W 124°24'4 8.4
2017-Jun-27 17:01N 45°46' W 124°25'4 8.4
2017-Jun-27 16:30N 45°41' W 124°26'4 8.2
2017-Jun-27 16:01N 45°38' W 124°27'4 8.2
2017-Jun-27 15:31N 45°33' W 124°28'4 8.2
2017-Jun-27 15:00N 45°29' W 124°29'8 8.5
2017-Jun-27 14:01N 45°21' W 124°30'4 8.6
2017-Jun-27 13:30N 45°17' W 124°31'4 8.6
2017-Jun-27 13:01N 45°13' W 124°32'4 8.8
2017-Jun-27 12:30N 45°08' W 124°34'4 8.8
2017-Jun-27 12:01N 45°04' W 124°35'5 8.9
2017-Jun-27 11:29N 44°59' W 124°36'4 8.6
2017-Jun-27 11:00N 44°55' W 124°38'4 8.6
2017-Jun-27 10:30N 44°51' W 124°39'4 8.4
2017-Jun-27 10:00N 44°47' W 124°39'4 8.3
2017-Jun-27 09:30N 44°43' W 124°39'4 8.0
2017-Jun-27 09:00N 44°39' W 124°40'5 8.1
2017-Jun-27 08:23N 44°34' W 124°42'3 8.1
2017-Jun-27 07:59N 44°31' W 124°43'4 8.3
2017-Jun-27 07:30N 44°27' W 124°45'6 8.4
2017-Jun-27 06:46N 44°21' W 124°43'4 8.5
2017-Jun-27 06:19N 44°18' W 124°42'3 8.3
2017-Jun-27 06:00N 44°15' W 124°42'5 8.4
2017-Jun-27 05:28N 44°10' W 124°42'4 8.2
2017-Jun-27 05:00N 44°07' W 124°42'4 8.1
2017-Jun-27 04:28N 44°02' W 124°43'6 8.4
2017-Jun-27 03:45N 43°56' W 124°43'4 8.3
2017-Jun-27 03:20N 43°53' W 124°44'333 8.3
2017-Jun-25 11:19N 38°24' W 123°39'4 9.5
2017-Jun-25 10:55N 38°21' W 123°36'4 9.6
2017-Jun-25 10:30N 38°19' W 123°32'5 9.2
2017-Jun-25 09:57N 38°15' W 123°28'4 9.0
2017-Jun-25 09:30N 38°12' W 123°24'5 9.3
2017-Jun-25 09:00N 38°09' W 123°20'7 9.3
2017-Jun-25 08:18N 38°04' W 123°14'3 9.1
2017-Jun-25 07:58N 38°02' W 123°12'6 9.0
2017-Jun-25 07:16N 37°57' W 123°06'3 9.3
2017-Jun-25 06:58N 37°56' W 123°03'4 9.2
2017-Jun-25 06:30N 37°54' W 122°58'6 9.3
2017-Jun-25 05:51N 37°51' W 122°52'4 9.1
2017-Jun-25 05:23N 37°49' W 122°47'4 9.0
2017-Jun-25 04:59N 37°47' W 122°43'4 8.6
2017-Jun-25 04:30N 37°46' W 122°38'4 8.1
2017-Jun-25 04:00N 37°48' W 122°33'4 7.5
2017-Jun-25 03:30N 37°49' W 122°29'3 6.8
2017-Jun-25 03:01N 37°51' W 122°25'4 7.4
2017-Jun-25 02:30N 37°54' W 122°26'1 2.4
2017-Jun-25 02:00N 37°55' W 122°25'0 0.4
2017-Jun-25 01:30N 37°55' W 122°25'0 0.2
2017-Jun-25 00:58N 37°55' W 122°25'0 0.0
2017-Jun-25 00:28N 37°55' W 122°25'0 0.0
2017-Jun-24 23:58N 37°55' W 122°25'0 0.0
2017-Jun-24 23:28N 37°55' W 122°25'0 0.0
2017-Jun-24 22:58N 37°55' W 122°25'0 0.0
2017-Jun-24 22:28N 37°55' W 122°25'0 0.0
2017-Jun-24 21:58N 37°55' W 122°25'0 0.0
2017-Jun-24 21:28N 37°55' W 122°25'0 0.0
2017-Jun-24 20:58N 37°55' W 122°25'0 0.0
2017-Jun-24 20:28N 37°55' W 122°25'0 0.0
2017-Jun-24 19:58N 37°55' W 122°25'0 0.0
2017-Jun-24 19:28N 37°55' W 122°25'0 0.0
2017-Jun-24 18:58N 37°55' W 122°25'0 0.0
2017-Jun-24 18:28N 37°55' W 122°25'0 0.0
2017-Jun-24 17:52N 37°55' W 122°25'0 0.0
2017-Jun-24 17:28N 37°55' W 122°25'0 0.0
2017-Jun-24 16:58N 37°55' W 122°25'0 0.0
2017-Jun-24 16:28N 37°55' W 122°25'0 0.0
2017-Jun-24 15:58N 37°55' W 122°25'0 0.0
2017-Jun-24 15:28N 37°55' W 122°25'0 0.0
2017-Jun-24 14:58N 37°55' W 122°25'0 0.0
2017-Jun-24 13:58N 37°55' W 122°25'0 0.0
2017-Jun-24 13:28N 37°55' W 122°25'0 0.0
2017-Jun-24 12:58N 37°55' W 122°25'0 0.0
2017-Jun-24 12:28N 37°55' W 122°25'0 0.0
2017-Jun-24 11:58N 37°55' W 122°25'0 0.0
2017-Jun-24 11:28N 37°55' W 122°25'0 0.0
2017-Jun-24 10:58N 37°55' W 122°25'0 0.0
2017-Jun-24 10:28N 37°55' W 122°25'0 0.0
2017-Jun-24 09:58N 37°55' W 122°25'0 0.0
2017-Jun-24 09:28N 37°55' W 122°25'0 0.0
2017-Jun-24 08:58N 37°55' W 122°25'0 0.0
2017-Jun-24 08:19N 37°55' W 122°25'0 0.0
2017-Jun-24 07:58N 37°55' W 122°25'0 0.0
2017-Jun-24 07:28N 37°55' W 122°25'0 0.0
2017-Jun-24 06:46N 37°55' W 122°25'0 0.0
2017-Jun-24 06:28N 37°55' W 122°25'0 0.0
2017-Jun-24 05:55N 37°55' W 122°25'0 0.0
2017-Jun-24 05:28N 37°55' W 122°25'0 0.0
2017-Jun-24 04:58N 37°55' W 122°25'0 0.0
2017-Jun-24 04:28N 37°55' W 122°25'0 0.0
2017-Jun-24 03:58N 37°55' W 122°25'0 0.0
2017-Jun-24 03:28N 37°55' W 122°25'0 0.0
2017-Jun-24 02:58N 37°55' W 122°25'0 0.0
2017-Jun-24 02:25N 37°55' W 122°25'0 0.0
2017-Jun-24 01:58N 37°55' W 122°25'0 0.0
2017-Jun-24 01:28N 37°55' W 122°25'0 0.0
2017-Jun-24 00:58N 37°55' W 122°25'0 0.0
2017-Jun-24 00:28N 37°55' W 122°25'0 0.0
2017-Jun-23 23:55N 37°55' W 122°25'0 0.0
2017-Jun-23 23:28N 37°55' W 122°25'0 0.0
2017-Jun-23 22:55N 37°55' W 122°25'0 0.0
2017-Jun-23 22:28N 37°55' W 122°25'0 0.0
2017-Jun-23 21:58N 37°55' W 122°25'0 0.0
2017-Jun-23 21:28N 37°55' W 122°25'0 0.0
2017-Jun-23 21:00N 37°55' W 122°25'0 0.0
2017-Jun-23 20:28N 37°55' W 122°25'0 0.0
2017-Jun-23 19:55N 37°55' W 122°25'0 0.0
2017-Jun-23 19:25N 37°55' W 122°25'0 0.3
2017-Jun-23 19:01N 37°55' W 122°25'0 0.3
2017-Jun-23 18:31N 37°55' W 122°25'2 4.3
2017-Jun-23 18:01N 37°54' W 122°22'1 1.5
2017-Jun-23 17:31N 37°55' W 122°22'0 0.0
2017-Jun-23 16:59N 37°55' W 122°22'0 0.0
2017-Jun-23 16:29N 37°55' W 122°22'0 0.0
2017-Jun-23 15:59N 37°55' W 122°22'0 0.0
2017-Jun-23 15:26N 37°55' W 122°22'0 0.0
2017-Jun-23 14:56N 37°55' W 122°22'0 0.0
2017-Jun-23 13:59N 37°55' W 122°22'0 0.0
2017-Jun-23 13:26N 37°55' W 122°22'0 0.0
2017-Jun-23 12:59N 37°55' W 122°22'0 0.0
2017-Jun-23 12:26N 37°55' W 122°22'0 0.0
2017-Jun-23 11:59N 37°55' W 122°22'0 0.0
2017-Jun-23 11:30N 37°55' W 122°22'0 0.0
2017-Jun-23 10:59N 37°55' W 122°22'0 0.0
2017-Jun-23 10:29N 37°55' W 122°22'0 0.0
2017-Jun-23 10:00N 37°55' W 122°22'0 0.0
2017-Jun-23 09:29N 37°55' W 122°22'0 0.0
2017-Jun-23 08:59N 37°55' W 122°22'0 0.0
2017-Jun-23 08:29N 37°55' W 122°22'0 0.0
2017-Jun-23 07:56N 37°55' W 122°22'0 0.0
2017-Jun-23 07:29N 37°55' W 122°22'0 0.0
2017-Jun-23 06:59N 37°55' W 122°22'0 0.0
2017-Jun-23 06:29N 37°55' W 122°22'0 0.0
2017-Jun-23 05:59N 37°55' W 122°22'0 0.0
2017-Jun-23 05:26N 37°55' W 122°22'0 0.0
2017-Jun-23 04:59N 37°55' W 122°22'0 0.0
2017-Jun-23 04:29N 37°55' W 122°22'0 0.0
2017-Jun-23 03:59N 37°55' W 122°22'0 0.0
2017-Jun-23 03:29N 37°55' W 122°22'0 0.0
2017-Jun-23 02:56N 37°55' W 122°22'0 0.0
2017-Jun-23 02:29N 37°55' W 122°22'0 0.0
2017-Jun-23 01:59N 37°55' W 122°22'0 0.0
2017-Jun-23 01:26N 37°55' W 122°22'0 0.0
2017-Jun-23 00:56N 37°55' W 122°22'0 0.0
2017-Jun-23 00:29N 37°55' W 122°22'0 0.0
2017-Jun-22 23:53N 37°55' W 122°22'0 0.0
2017-Jun-22 23:20N 37°55' W 122°22'0 0.0
2017-Jun-22 22:56N 37°55' W 122°22'0 0.0
2017-Jun-22 22:23N 37°55' W 122°22'0 0.0
2017-Jun-22 21:56N 37°55' W 122°22'0 0.0
2017-Jun-22 21:26N 37°55' W 122°22'0 0.0
2017-Jun-22 20:53N 37°55' W 122°22'0 0.0
2017-Jun-22 20:26N 37°55' W 122°22'0 0.0
2017-Jun-22 19:56N 37°55' W 122°22'0 0.0
2017-Jun-22 19:17N 37°55' W 122°22'0 0.0
2017-Jun-22 18:59N 37°55' W 122°22'0 0.0
2017-Jun-22 18:23N 37°55' W 122°22'0 0.0
2017-Jun-22 17:56N 37°55' W 122°22'0 0.0
2017-Jun-22 16:44N 37°55' W 122°22'0 0.0
2017-Jun-22 16:29N 37°55' W 122°22'0 0.0
2017-Jun-22 15:59N 37°55' W 122°22'0 0.0
2017-Jun-22 15:23N 37°55' W 122°22'0 0.0
2017-Jun-22 14:59N 37°55' W 122°22'0 0.0
2017-Jun-22 14:29N 37°55' W 122°22'0 0.0
2017-Jun-22 13:26N 37°55' W 122°22'0 0.0
2017-Jun-22 12:59N 37°55' W 122°22'0 0.0
2017-Jun-22 12:26N 37°55' W 122°22'0 0.0
2017-Jun-22 11:59N 37°55' W 122°22'0 0.0
2017-Jun-22 11:23N 37°55' W 122°22'0 0.0
2017-Jun-22 10:59N 37°55' W 122°22'0 0.0
2017-Jun-22 10:29N 37°55' W 122°22'0 0.0
2017-Jun-22 09:59N 37°55' W 122°22'0 0.0
2017-Jun-22 09:26N 37°55' W 122°22'0 0.0
2017-Jun-22 08:59N 37°55' W 122°22'0 0.0
2017-Jun-22 08:29N 37°55' W 122°22'0 0.0
2017-Jun-22 06:47N 37°55' W 122°22'0 0.0
2017-Jun-22 06:17N 37°55' W 122°22'0 0.0
2017-Jun-22 05:59N 37°55' W 122°22'0 0.0
2017-Jun-22 05:29N 37°55' W 122°22'0 0.0
2017-Jun-22 04:53N 37°55' W 122°22'0 0.0
2017-Jun-22 04:26N 37°55' W 122°22'0 0.0
2017-Jun-22 03:53N 37°55' W 122°22'0 0.0
2017-Jun-22 03:29N 37°55' W 122°22'0 0.0
2017-Jun-22 02:56N 37°55' W 122°22'0 0.0
2017-Jun-22 02:29N 37°55' W 122°22'0 0.0
2017-Jun-22 01:59N 37°55' W 122°22'0 0.0
2017-Jun-22 01:29N 37°55' W 122°22'0 0.0
2017-Jun-22 00:56N 37°55' W 122°22'0 0.0
2017-Jun-22 00:26N 37°55' W 122°22'0 0.0
2017-Jun-21 23:59N 37°55' W 122°22'0 0.0
2017-Jun-21 23:17N 37°55' W 122°22'0 0.0
2017-Jun-21 22:56N 37°55' W 122°22'0 0.0
2017-Jun-21 22:29N 37°55' W 122°22'0 0.0
2017-Jun-21 21:56N 37°55' W 122°22'0 0.0
2017-Jun-21 21:29N 37°55' W 122°22'0 0.0
2017-Jun-21 20:56N 37°55' W 122°22'0 0.0
2017-Jun-21 20:29N 37°55' W 122°22'0 0.0
2017-Jun-21 19:56N 37°55' W 122°22'0 0.0
2017-Jun-21 19:29N 37°55' W 122°22'0 0.0
2017-Jun-21 18:59N 37°55' W 122°22'0 0.0
2017-Jun-21 18:29N 37°55' W 122°22'0 0.0
2017-Jun-21 17:59N 37°55' W 122°22'0 0.0
2017-Jun-21 17:26N 37°55' W 122°22'0 0.0
2017-Jun-21 16:23N 37°55' W 122°22'0 0.0
2017-Jun-21 15:47N 37°55' W 122°22'0 0.0
2017-Jun-21 15:29N 37°55' W 122°22'0 0.0
2017-Jun-21 14:47N 37°55' W 122°22'0 0.0
2017-Jun-21 13:59N 37°55' W 122°22'0 0.0
2017-Jun-21 13:29N 37°55' W 122°22'0 0.0
2017-Jun-21 12:59N 37°55' W 122°22'0 0.0
2017-Jun-21 12:29N 37°55' W 122°22'0 0.0
2017-Jun-21 11:59N 37°55' W 122°22'0 0.0
2017-Jun-21 11:26N 37°55' W 122°22'0 0.0
2017-Jun-21 10:59N 37°55' W 122°22'0 0.0
2017-Jun-21 10:23N 37°55' W 122°22'0 0.0
2017-Jun-21 09:59N 37°55' W 122°22'0 0.0
2017-Jun-21 09:26N 37°55' W 122°22'0 0.0
2017-Jun-21 08:56N 37°55' W 122°22'0 0.0
2017-Jun-21 08:23N 37°55' W 122°22'0 0.0
2017-Jun-21 07:59N 37°55' W 122°22'0 0.0
2017-Jun-21 07:05N 37°55' W 122°22'0 0.0
2017-Jun-21 06:47N 37°55' W 122°22'0 0.0
2017-Jun-21 06:23N 37°55' W 122°22'0 0.0
2017-Jun-21 05:59N 37°55' W 122°22'0 0.0
2017-Jun-21 05:29N 37°55' W 122°22'0 0.0
2017-Jun-21 04:59N 37°55' W 122°22'0 0.0
2017-Jun-21 04:17N 37°55' W 122°22'0 0.0
2017-Jun-21 03:05N 37°55' W 122°22'0 0.0
2017-Jun-21 02:56N 37°55' W 122°22'0 0.0
2017-Jun-21 02:29N 37°55' W 122°22'0 0.0
2017-Jun-21 01:38N 37°55' W 122°22'0 0.0
2017-Jun-21 01:29N 37°55' W 122°22'0 0.0
2017-Jun-21 00:59N 37°55' W 122°22'0 0.0
2017-Jun-21 00:29N 37°55' W 122°22'0 0.0
2017-Jun-20 23:56N 37°55' W 122°22'0 0.0
2017-Jun-20 23:29N 37°55' W 122°22'0 0.0
2017-Jun-20 22:59N 37°55' W 122°22'0 0.0
2017-Jun-20 22:29N 37°55' W 122°22'0 0.0
2017-Jun-20 21:59N 37°55' W 122°22'0 0.0
2017-Jun-20 21:26N 37°55' W 122°22'0 0.0
2017-Jun-20 20:59N 37°55' W 122°22'0 0.0
2017-Jun-20 20:29N 37°55' W 122°22'0 0.0
2017-Jun-20 19:59N 37°55' W 122°22'0 0.0
2017-Jun-20 19:27N 37°55' W 122°22'1 1.6
2017-Jun-20 19:01N 37°54' W 122°22'3 5.6
2017-Jun-20 18:30N 37°55' W 122°25'1 1.7
2017-Jun-20 18:00N 37°55' W 122°26'0 0.0
2017-Jun-20 17:28N 37°55' W 122°26'0 0.0
2017-Jun-20 16:58N 37°55' W 122°26'0 0.0
2017-Jun-20 16:25N 37°55' W 122°26'0 0.0
2017-Jun-20 15:49N 37°55' W 122°26'0 0.0
2017-Jun-20 15:28N 37°55' W 122°26'0 0.1
2017-Jun-20 14:43N 37°55' W 122°26'0 0.1
2017-Jun-20 14:22N 37°55' W 122°26'0 0.1
2017-Jun-20 13:28N 37°55' W 122°26'0 0.0
2017-Jun-20 12:58N 37°55' W 122°26'0 0.0
2017-Jun-20 12:28N 37°55' W 122°26'0 0.0
2017-Jun-20 11:55N 37°55' W 122°26'0 0.0
2017-Jun-20 11:28N 37°55' W 122°26'0 0.0
2017-Jun-20 10:58N 37°55' W 122°26'0 0.0
2017-Jun-20 10:28N 37°55' W 122°26'0 0.0
2017-Jun-20 09:58N 37°55' W 122°26'0 0.0
2017-Jun-20 09:28N 37°55' W 122°26'0 0.0
2017-Jun-20 08:52N 37°55' W 122°26'0 0.0
2017-Jun-20 08:28N 37°55' W 122°26'0 0.1
2017-Jun-20 07:58N 37°55' W 122°26'0 0.1
2017-Jun-20 07:28N 37°55' W 122°26'0 0.1
2017-Jun-20 06:58N 37°55' W 122°26'0 0.1
2017-Jun-20 06:28N 37°55' W 122°26'0 0.0
2017-Jun-20 05:55N 37°55' W 122°26'0 0.0
2017-Jun-20 05:31N 37°55' W 122°26'3 5.5
2017-Jun-20 05:01N 37°58' W 122°26'4 8.2
2017-Jun-20 04:30N 38°01' W 122°23'4 7.7
2017-Jun-20 04:00N 38°03' W 122°18'4 7.5
2017-Jun-20 03:30N 38°04' W 122°14'5 5.6
2017-Jun-20 02:40N 38°02' W 122°08'0 0.0
2017-Jun-18 17:05N 38°02' W 122°08'0 0.1
2017-Jun-18 17:00N 38°02' W 122°08'2 3.2
2017-Jun-18 16:30N 38°03' W 122°06'0 0.0
2017-Jun-18 12:06N 38°03' W 122°06'0 0.1
2017-Jun-18 12:00N 38°03' W 122°06'  

Dump ship's entire track history